PAH weather

Barkley Regional Airport
Paducah, Kentucky, United States

Public forecast

Using degrees Fahrenheit for public forecast. Weather courtesy of forecast.io.

Current aviation weather report (METAR) for Barkley Regional Airport

Retrieved 2020/01/21 09:53 UTC (43 minutes ago):

KPAH 210953Z AUTO 07003KT 10SM CLR M07/M10 A3063 RMK AO2 SLP377 T10671100

Aviation forecast (TAF) for Barkley Regional Airport

Retrieved 2020/01/21 06:22 UTC (4 hours ago):

TAF KPAH 210520Z 2106/2206 01007KT P6SM OVC022 FM210900 VRB04KT P6SM OVC035 FM211600 05005KT P6SM SCT035 FM220000 VRB03KT P6SM SKC